createdAt,value
2022-10-26T00:00:00.169Z,3.78
2022-10-26T00:04:02.445Z,2.90
2022-10-26T00:08:07.226Z,2.92
2022-10-26T00:12:09.236Z,2.70
2022-10-26T00:16:24.994Z,2.42
2022-10-26T00:20:26.480Z,2.88
2022-10-26T00:24:28.056Z,2.70
2022-10-26T00:28:45.344Z,2.70
2022-10-26T00:32:46.885Z,2.33
2022-10-26T00:36:50.932Z,2.60
2022-10-26T00:40:52.447Z,2.60
2022-10-26T00:45:31.521Z,2.90
2022-10-26T00:49:33.017Z,2.70
2022-10-26T00:53:34.668Z,2.83
2022-10-26T01:06:02.412Z,2.33
2022-10-26T01:10:04.377Z,2.60
2022-10-26T01:14:08.600Z,2.45
2022-10-26T01:18:38.155Z,2.20
2022-10-26T01:22:43.669Z,1.88
2022-10-26T01:26:45.092Z,2.42
2022-10-26T01:30:48.872Z,2.50
2022-10-26T01:35:05.587Z,2.90
2022-10-26T01:39:28.772Z,2.60
2022-10-26T01:43:33.251Z,2.33
2022-10-26T01:47:44.790Z,2.50
2022-10-26T01:51:49.195Z,2.88
2022-10-26T01:55:52.491Z,2.33
2022-10-26T02:00:12.087Z,2.53
2022-10-26T02:04:42.014Z,2.55
2022-10-26T02:08:49.373Z,2.25
2022-10-26T02:12:57.300Z,2.30
2022-10-26T02:17:26.268Z,3.05
2022-10-26T02:21:36.268Z,3.30
2022-10-26T02:25:44.624Z,2.20
2022-10-26T02:29:47.636Z,2.47
2022-10-26T02:33:50.857Z,2.40
2022-10-26T02:37:53.327Z,2.50
2022-10-26T02:41:55.596Z,2.25
2022-10-26T02:46:04.518Z,2.75
2022-10-26T02:50:07.444Z,2.10
2022-10-26T02:54:29.684Z,2.88
2022-10-26T02:58:33.783Z,2.40
2022-10-26T03:02:35.311Z,2.53
2022-10-26T03:06:36.875Z,2.60
2022-10-26T03:10:42.311Z,2.72
2022-10-26T03:14:44.296Z,2.72
2022-10-26T03:18:46.275Z,2.30
2022-10-26T03:22:48.430Z,2.30
2022-10-26T03:26:50.258Z,2.58
2022-10-26T03:30:52.095Z,2.67
2022-10-26T03:34:53.965Z,2.67
2022-10-26T03:38:55.563Z,2.38
2022-10-26T03:42:57.039Z,3.03
2022-10-26T03:46:58.414Z,2.55
2022-10-26T03:51:00.437Z,2.55
2022-10-26T03:55:02.436Z,1.95
2022-10-26T03:59:03.965Z,2.67
2022-10-26T04:03:05.455Z,2.85
2022-10-26T04:07:06.844Z,2.40
2022-10-26T04:11:08.548Z,2.63
2022-10-26T04:15:10.391Z,2.35
2022-10-26T04:19:12.323Z,3.08
2022-10-26T04:23:15.860Z,2.35
2022-10-26T04:27:17.379Z,2.20
2022-10-26T04:31:19.239Z,2.45
2022-10-26T04:35:20.663Z,3.15
2022-10-26T04:39:22.169Z,3.20
2022-10-26T04:43:24.081Z,3.67
2022-10-26T04:47:25.874Z,2.22
2022-10-26T04:51:27.871Z,2.17
2022-10-26T04:55:29.822Z,2.08
2022-10-26T04:59:31.396Z,2.13
2022-10-26T05:03:32.975Z,2.30
2022-10-26T05:07:34.370Z,2.33
2022-10-26T05:11:35.914Z,2.67
2022-10-26T05:15:37.495Z,2.33
2022-10-26T05:19:39.382Z,2.15
2022-10-26T05:23:40.783Z,2.10
2022-10-26T05:27:42.283Z,2.33
2022-10-26T05:31:43.678Z,2.05
2022-10-26T05:35:45.119Z,3.20
2022-10-26T05:39:47.074Z,2.15
2022-10-26T05:43:56.209Z,1.67
2022-10-26T05:48:02.579Z,2.03
2022-10-26T05:52:16.057Z,2.28
2022-10-26T05:56:28.817Z,2.45
2022-10-26T06:00:31.050Z,2.13
2022-10-26T06:04:39.096Z,2.03
2022-10-26T06:08:43.011Z,2.20
2022-10-26T06:12:45.266Z,1.95
2022-10-26T06:17:04.859Z,1.92
2022-10-26T06:21:14.186Z,2.03
2022-10-26T06:25:27.628Z,2.05
2022-10-26T06:29:41.639Z,2.28
2022-10-26T06:33:43.108Z,2.00
2022-10-26T06:37:45.395Z,1.80
2022-10-26T06:41:47.254Z,2.10
2022-10-26T06:45:52.664Z,1.90
2022-10-26T06:50:09.487Z,1.98
2022-10-26T06:54:43.744Z,2.10
2022-10-26T06:58:45.852Z,2.42
2022-10-26T07:02:48.943Z,2.55
2022-10-26T07:06:50.744Z,2.25
2022-10-26T07:10:52.397Z,2.40
2022-10-26T07:14:54.055Z,2.33
2022-10-26T07:18:55.460Z,2.53
2022-10-26T07:22:57.558Z,1.92
2022-10-26T07:26:59.790Z,2.33
2022-10-26T07:31:01.388Z,2.13
2022-10-26T07:35:03.698Z,1.73
2022-10-26T07:39:07.932Z,2.83
2022-10-26T07:43:09.340Z,2.10
2022-10-26T07:47:11.062Z,2.13
2022-10-26T07:51:12.956Z,3.00
2022-10-26T07:55:14.920Z,2.72
2022-10-26T07:59:18.498Z,2.70
2022-10-26T08:03:21.762Z,2.40
2022-10-26T08:07:23.273Z,1.95
2022-10-26T08:11:24.789Z,1.92
2022-10-26T08:15:26.510Z,2.70
2022-10-26T08:19:28.547Z,2.30
2022-10-26T08:23:30.051Z,2.50
2022-10-26T08:27:31.838Z,2.55
2022-10-26T08:31:34.357Z,2.15
2022-10-26T08:35:35.801Z,2.40
2022-10-26T08:39:37.416Z,2.63
2022-10-26T08:43:52.803Z,2.42
2022-10-26T08:47:58.055Z,2.70
2022-10-26T08:52:02.015Z,2.30
2022-10-26T08:56:19.972Z,2.10
2022-10-26T09:00:25.684Z,2.17
2022-10-26T09:04:28.861Z,1.92
2022-10-26T09:08:35.667Z,2.17
2022-10-26T09:12:56.186Z,2.23
2022-10-26T09:17:34.005Z,2.53
2022-10-26T09:21:48.542Z,1.77
2022-10-26T09:26:02.045Z,2.35
2022-10-26T09:30:14.896Z,2.42
2022-10-26T09:34:36.246Z,2.35
2022-10-26T09:39:00.135Z,2.25
2022-10-26T09:43:17.418Z,2.25
2022-10-26T09:47:40.779Z,1.67
2022-10-26T09:51:44.253Z,1.92
2022-10-26T09:55:47.573Z,1.90
2022-10-26T09:59:51.129Z,2.15
2022-10-26T10:04:08.883Z,2.17
2022-10-26T10:08:14.379Z,2.05
2022-10-26T10:12:21.286Z,1.90
2022-10-26T10:16:24.238Z,2.10
2022-10-26T10:20:55.471Z,1.67
2022-10-26T10:24:59.142Z,1.58
2022-10-26T10:29:01.646Z,2.00
2022-10-26T10:33:12.788Z,1.90
2022-10-26T10:37:44.354Z,1.65
2022-10-26T10:41:45.931Z,1.85
2022-10-26T10:45:49.335Z,1.92
2022-10-26T10:49:53.237Z,1.90
2022-10-26T10:53:57.644Z,1.67
2022-10-26T10:58:11.277Z,1.67
2022-10-26T11:02:25.954Z,2.45
2022-10-26T11:06:29.192Z,2.60
2022-10-26T11:10:36.905Z,2.53
2022-10-26T11:14:43.349Z,2.38
2022-10-26T11:18:55.677Z,2.30
2022-10-26T11:23:19.875Z,2.05
2022-10-26T11:27:34.990Z,2.45
2022-10-26T11:31:50.132Z,2.00
2022-10-26T11:36:05.257Z,1.48
2022-10-26T11:40:41.297Z,2.15
2022-10-26T11:44:43.075Z,1.40
2022-10-26T11:49:05.847Z,1.85
2022-10-26T11:53:15.299Z,2.38
2022-10-26T11:57:17.280Z,1.77
2022-10-26T12:01:19.368Z,1.70
2022-10-26T12:05:26.460Z,1.40
2022-10-26T12:09:34.923Z,1.95
2022-10-26T12:13:59.102Z,1.70
2022-10-26T12:18:26.856Z,1.40
2022-10-26T12:22:35.265Z,2.45
2022-10-26T12:26:36.779Z,1.45
2022-10-26T12:30:38.247Z,1.98
2022-10-26T12:34:46.427Z,1.75
2022-10-26T12:38:53.962Z,1.58
2022-10-26T12:46:58.310Z,1.95
2022-10-26T12:51:18.944Z,1.98
2022-10-26T12:55:26.079Z,1.60
2022-10-26T12:59:46.623Z,1.63
2022-10-26T13:04:07.168Z,1.80
2022-10-26T13:08:10.861Z,1.70
2022-10-26T13:12:12.682Z,1.25
2022-10-26T13:16:16.815Z,1.40
2022-10-26T13:20:19.092Z,1.90
2022-10-26T13:24:23.819Z,2.08
2022-10-26T13:28:39.206Z,1.45
2022-10-26T13:32:42.645Z,1.60
2022-10-26T13:37:13.076Z,1.45
2022-10-26T13:41:23.475Z,1.90
2022-10-26T13:45:30.938Z,1.65
2022-10-26T13:53:49.422Z,1.77
2022-10-26T13:58:31.922Z,1.83
2022-10-26T14:02:33.734Z,1.75
2022-10-26T14:06:38.014Z,2.00
2022-10-26T14:10:41.847Z,1.65
2022-10-26T14:14:43.904Z,3.60
2022-10-26T14:18:45.922Z,1.92
2022-10-26T14:22:47.442Z,2.38
2022-10-26T14:26:48.937Z,2.05
2022-10-26T14:30:51.630Z,1.33
2022-10-26T14:34:53.545Z,1.80
2022-10-26T14:38:58.987Z,2.15
2022-10-26T14:43:02.227Z,1.95
2022-10-26T14:47:03.882Z,1.45
2022-10-26T14:51:16.543Z,1.90
2022-10-26T14:55:18.426Z,1.92
2022-10-26T14:59:24.860Z,1.75
2022-10-26T15:03:26.346Z,1.67
2022-10-26T15:07:37.808Z,1.50
2022-10-26T15:11:42.093Z,1.40
2022-10-26T15:15:47.078Z,1.60
2022-10-26T15:19:52.318Z,1.25
2022-10-26T15:23:55.546Z,2.40
2022-10-26T15:28:49.763Z,1.15
2022-10-26T15:32:53.578Z,2.03
2022-10-26T15:36:56.659Z,3.00
2022-10-26T15:40:58.481Z,2.30
2022-10-26T15:45:00.106Z,2.17
2022-10-26T15:49:07.217Z,2.00
2022-10-26T15:53:14.000Z,1.80
2022-10-26T15:57:17.941Z,2.10
2022-10-26T16:01:24.719Z,2.00
2022-10-26T16:05:26.377Z,2.03
2022-10-26T16:09:27.868Z,2.50
2022-10-26T16:13:30.618Z,1.63
2022-10-26T16:17:33.475Z,2.40
2022-10-26T16:21:35.219Z,2.88
2022-10-26T16:25:46.812Z,3.45
2022-10-26T16:29:48.531Z,3.05
2022-10-26T16:33:50.148Z,2.47
2022-10-26T16:37:51.552Z,2.15
2022-10-26T16:41:53.831Z,2.20
2022-10-26T16:45:55.240Z,2.45
2022-10-26T16:49:56.802Z,1.95
2022-10-26T16:53:58.294Z,3.22
2022-10-26T16:57:59.936Z,2.75
2022-10-26T17:02:01.482Z,2.90
2022-10-26T17:06:06.827Z,2.85
2022-10-26T17:10:11.744Z,2.85
2022-10-26T17:14:14.225Z,4.55
2022-10-26T17:18:18.559Z,3.05
2022-10-26T17:22:20.099Z,2.67
2022-10-26T17:26:21.718Z,2.92
2022-10-26T17:30:23.221Z,3.00
2022-10-26T17:34:24.750Z,4.18
2022-10-26T17:38:27.217Z,3.50
2022-10-26T17:42:28.998Z,3.10
2022-10-26T17:46:30.509Z,3.15
2022-10-26T17:50:31.969Z,2.83
2022-10-26T17:54:33.525Z,4.65
2022-10-26T17:58:35.906Z,4.47
2022-10-26T18:02:37.660Z,3.85
2022-10-26T18:06:39.542Z,3.60
2022-10-26T18:10:49.967Z,3.33
2022-10-26T18:14:51.636Z,4.20
2022-10-26T18:19:01.944Z,3.38
2022-10-26T18:23:03.927Z,3.42
2022-10-26T18:27:05.780Z,3.85
2022-10-26T18:31:09.295Z,3.85
2022-10-26T18:35:10.756Z,3.60
2022-10-26T18:39:12.431Z,2.90
2022-10-26T18:43:16.936Z,3.58
2022-10-26T18:47:18.540Z,3.63
2022-10-26T18:51:23.465Z,3.20
2022-10-26T18:55:25.492Z,3.28
2022-10-26T18:59:27.185Z,4.78
2022-10-26T19:03:28.659Z,5.88
2022-10-26T19:07:30.201Z,4.75
2022-10-26T19:11:32.188Z,4.30
2022-10-26T19:15:34.264Z,4.70
2022-10-26T19:19:36.073Z,3.78
2022-10-26T19:23:45.424Z,4.90
2022-10-26T19:27:47.059Z,4.63
2022-10-26T19:31:51.925Z,4.05
2022-10-26T19:35:59.996Z,4.35
2022-10-26T19:40:08.750Z,7.55
2022-10-26T19:44:15.326Z,4.53
2022-10-26T19:48:17.727Z,4.75
2022-10-26T19:56:25.984Z,7.22
2022-10-26T20:00:29.127Z,5.53
2022-10-26T20:04:31.270Z,3.85
2022-10-26T20:08:32.978Z,4.43
2022-10-26T20:12:34.422Z,4.70
2022-10-26T20:16:35.932Z,4.68
2022-10-26T20:20:40.592Z,4.72
2022-10-26T20:24:43.408Z,4.72
2022-10-26T20:28:46.351Z,5.28
2022-10-26T20:32:48.007Z,4.78
2022-10-26T20:36:49.438Z,4.50
2022-10-26T20:41:00.453Z,4.18
2022-10-26T20:45:16.423Z,4.20
2022-10-26T20:49:20.756Z,4.70
2022-10-26T20:53:31.511Z,3.38
2022-10-26T20:57:35.134Z,3.45
2022-10-26T21:01:38.322Z,4.13
2022-10-26T21:05:45.494Z,4.40
2022-10-26T21:09:46.967Z,4.47
2022-10-26T21:13:49.370Z,4.00
2022-10-26T21:17:51.193Z,5.07
2022-10-26T21:21:52.807Z,4.03
2022-10-26T21:25:54.647Z,3.83
2022-10-26T21:29:59.415Z,4.05
2022-10-26T21:34:00.862Z,3.95
2022-10-26T21:38:02.249Z,4.22
2022-10-26T21:42:03.788Z,4.10
2022-10-26T21:46:06.131Z,3.72
2022-10-26T21:50:08.855Z,2.92
2022-10-26T21:54:10.564Z,3.50
2022-10-26T21:58:12.398Z,3.13
2022-10-26T22:02:13.923Z,4.07
2022-10-26T22:06:17.364Z,3.60
2022-10-26T22:10:18.953Z,3.42
2022-10-26T22:14:20.696Z,3.47
2022-10-26T22:18:22.192Z,4.63
2022-10-26T22:22:23.764Z,3.47
2022-10-26T22:26:25.361Z,4.18
2022-10-26T22:30:26.820Z,3.75
2022-10-26T22:34:28.716Z,3.30
2022-10-26T22:38:30.172Z,3.85
2022-10-26T22:42:31.624Z,4.00
2022-10-26T22:46:34.302Z,4.13
2022-10-26T22:50:37.842Z,4.43
2022-10-26T22:54:39.570Z,4.90
2022-10-26T22:58:40.946Z,4.30
2022-10-26T23:02:42.377Z,5.00
2022-10-26T23:06:44.427Z,3.97
2022-10-26T23:10:47.077Z,3.88
2022-10-26T23:14:48.616Z,4.53
2022-10-26T23:18:53.599Z,4.68
2022-10-26T23:22:55.435Z,3.70
2022-10-26T23:26:57.259Z,4.55
2022-10-26T23:30:58.719Z,3.92
2022-10-26T23:35:00.164Z,4.28
2022-10-26T23:39:01.662Z,4.70
2022-10-26T23:43:04.362Z,3.80
2022-10-26T23:47:05.812Z,3.47
2022-10-26T23:51:07.258Z,3.97
2022-10-26T23:55:09.096Z,3.75
2022-10-26T23:59:12.576Z,4.55
